Time;durP1;ratioP1;P1;durP2;ratioP2;P2;SDS_P1;SDS_P2;PMS_P1;PMS_P2;Temp;Humidity;BMP_temperature;BMP_pressure;BME280_temperature;BME280_humidity;BME280_pressure;Samples;Min_cycle;Max_cycle;Signal;HPM_P1;HPM_P2
2021/05/26 12:59:45;;;;;;;87.32;83.53;;;;;;;;;;5070617;28;20634;-75
2021/05/26 13:02:13;;;;;;;110.43;105.45;;;;;;;;;;5070622;28;20542;-75
2021/05/26 13:04:45;;;;;;;107.82;103.07;;;;;;;;;;5069295;28;20175;-77
2021/05/26 13:07:28;;;;;;;111.63;106.68;;;;;;;;;;5069223;28;20207;-75
2021/05/26 13:09:54;;;;;;;101.15;96.70;;;;;;;;;;5070291;28;20164;-76
2021/05/26 13:12:24;;;;;;;102.03;97.03;;;;;;;;;;5070319;28;20215;-75
2021/05/26 13:14:50;;;;;;;100.25;95.85;;;;;;;;;;5070262;28;20169;-75
2021/05/26 13:17:16;;;;;;;113.22;108.22;;;;;;;;;;5070142;28;20634;-73
2021/05/26 13:19:42;;;;;;;111.82;106.90;;;;;;;;;;5070242;28;20222;-75
2021/05/26 13:22:09;;;;;;;117.72;112.53;;;;;;;;;;5070158;28;20582;-74
2021/05/26 13:24:35;;;;;;;120.60;115.25;;;;;;;;;;5070131;28;20195;-75
2021/05/26 13:27:01;;;;;;;118.90;113.63;;;;;;;;;;5070150;28;20521;-74
2021/05/26 13:29:27;;;;;;;114.72;109.65;;;;;;;;;;5069996;28;20191;-76
2021/05/26 13:31:55;;;;;;;113.65;108.60;;;;;;;;;;5069985;28;20630;-75
2021/05/26 13:34:21;;;;;;;142.20;135.77;;;;;;;;;;5068552;28;20630;-75
2021/05/26 13:36:47;;;;;;;113.20;108.10;;;;;;;;;;5069906;28;20176;-73
2021/05/26 13:39:13;;;;;;;121.93;116.38;;;;;;;;;;5070405;28;20192;-75
2021/05/26 13:41:42;;;;;;;116.93;111.68;;;;;;;;;;5073800;28;20208;-77
2021/05/26 13:44:08;;;;;;;103.40;98.82;;;;;;;;;;5070643;28;20175;-77
2021/05/26 13:46:36;;;;;;;106.72;102.03;;;;;;;;;;5069866;28;20259;-76
2021/05/26 13:49:03;;;;;;;116.57;111.35;;;;;;;;;;5068340;28;20176;-77
2021/05/26 13:51:29;;;;;;;97.03;92.72;;;;;;;;;;5069631;28;20191;-74
2021/05/26 13:53:55;;;;;;;98.38;94.07;;;;;;;;;;5069523;28;20169;-75
2021/05/26 13:56:21;;;;;;;105.72;101.05;;;;;;;;;;5069477;28;20230;-75
2021/05/26 13:58:47;;;;;;;106.18;101.47;;;;;;;;;;5069253;28;20263;-75
2021/05/26 14:01:13;;;;;;;106.93;102.18;;;;;;;;;;5069430;28;20160;-75
2021/05/26 14:03:39;;;;;;;108.25;103.45;;;;;;;;;;5069233;28;20500;-75
2021/05/26 14:06:05;;;;;;;126.50;120.85;;;;;;;;;;5069325;28;20168;-85
2021/05/26 14:08:31;;;;;;;115.57;110.43;;;;;;;;;;5067888;28;20844;-74
2021/05/26 14:10:58;;;;;;;100.90;96.47;;;;;;;;;;5056835;28;20196;-74
2021/05/26 14:13:24;;;;;;;101.03;96.57;;;;;;;;;;5055946;28;20176;-74
2021/05/26 14:15:50;;;;;;;107.50;102.40;;;;;;;;;;5056079;28;20169;-74
2021/05/26 14:18:16;;;;;;;103.35;98.80;;;;;;;;;;5055857;28;20275;-76
2021/05/26 14:20:42;;;;;;;104.05;99.47;;;;;;;;;;5055779;28;20528;-75
2021/05/26 14:23:08;;;;;;;104.53;99.75;;;;;;;;;;5055713;28;20175;-74
2021/05/26 14:25:35;;;;;;;92.80;88.50;;;;;;;;;;5055762;28;20223;-74
2021/05/26 14:28:01;;;;;;;99.25;94.90;;;;;;;;;;5055755;28;20223;-73
2021/05/26 14:30:27;;;;;;;151.40;143.85;;;;;;;;;;5055706;28;20173;-68
2021/05/26 14:32:53;;;;;;;105.57;100.93;;;;;;;;;;5055630;28;20169;-68
2021/05/26 14:35:22;;;;;;;99.32;94.97;;;;;;;;;;5054483;28;20200;-69
2021/05/26 14:37:49;;;;;;;111.82;106.82;;;;;;;;;;5055455;28;20185;-69
2021/05/26 14:40:17;;;;;;;99.32;94.95;;;;;;;;;;5055195;28;20494;-69
2021/05/26 14:42:43;;;;;;;90.55;86.35;;;;;;;;;;5055436;28;20165;-69
2021/05/26 14:45:13;;;;;;;97.35;93.00;;;;;;;;;;5055391;28;20222;-69
2021/05/26 14:47:38;;;;;;;107.72;102.97;;;;;;;;;;5054025;28;20209;-69
2021/05/26 14:50:05;;;;;;;106.13;101.43;;;;;;;;;;5055177;28;20180;-69
2021/05/26 14:52:31;;;;;;;102.22;97.75;;;;;;;;;;5055327;28;20627;-69
2021/05/26 14:54:57;;;;;;;91.82;87.72;;;;;;;;;;5053917;28;20544;-69
2021/05/26 14:57:24;;;;;;;101.32;96.78;;;;;;;;;;5054862;28;20169;-69
2021/05/26 14:59:50;;;;;;;100.22;95.63;;;;;;;;;;5055116;28;20165;-69
2021/05/26 15:02:17;;;;;;;92.35;88.05;;;;;;;;;;5055033;28;20526;-69
2021/05/26 15:04:43;;;;;;;90.07;85.78;;;;;;;;;;5054755;28;20583;-69
2021/05/26 15:07:09;;;;;;;108.15;103.35;;;;;;;;;;5053771;28;20251;-69
2021/05/26 15:09:35;;;;;;;99.60;95.15;;;;;;;;;;5054619;28;20169;-69
2021/05/26 15:12:01;;;;;;;101.78;97.25;;;;;;;;;;5054811;28;20234;-70
2021/05/26 15:14:27;;;;;;;101.80;97.30;;;;;;;;;;5054856;28;20171;-70
2021/05/26 15:16:53;;;;;;;101.82;97.32;;;;;;;;;;5054814;28;20176;-70
2021/05/26 15:19:19;;;;;;;100.15;95.75;;;;;;;;;;5054665;28;20638;-70
2021/05/26 15:21:46;;;;;;;108.30;103.50;;;;;;;;;;5052617;28;20219;-70
2021/05/26 15:24:12;;;;;;;111.72;106.63;;;;;;;;;;5054626;28;20168;-70
2021/05/26 15:26:38;;;;;;;116.72;111.55;;;;;;;;;;5054570;28;20169;-70
2021/05/26 15:29:04;;;;;;;115.43;110.32;;;;;;;;;;5054506;28;20177;-70
2021/05/26 15:31:31;;;;;;;94.07;89.97;;;;;;;;;;5054479;28;20578;-70
2021/05/26 15:33:57;;;;;;;101.63;97.18;;;;;;;;;;5054676;28;20263;-70
2021/05/26 15:36:23;;;;;;;109.75;104.88;;;;;;;;;;5054467;28;20173;-69
2021/05/26 15:38:49;;;;;;;110.55;105.30;;;;;;;;;;5054246;28;20296;-69
2021/05/26 15:41:15;;;;;;;105.53;100.90;;;;;;;;;;5054309;28;20574;-70
2021/05/26 15:43:41;;;;;;;103.65;99.10;;;;;;;;;;5054657;28;20655;-70
2021/05/26 15:46:10;;;;;;;110.75;105.75;;;;;;;;;;5054211;28;20177;-69
2021/05/26 15:48:37;;;;;;;111.32;106.25;;;;;;;;;;5054149;28;20244;-69
2021/05/26 15:51:03;;;;;;;107.25;102.45;;;;;;;;;;5054177;28;20169;-70
2021/05/26 15:53:29;;;;;;;130.60;124.78;;;;;;;;;;5052779;28;20173;-69
2021/05/26 15:55:56;;;;;;;117.32;110.95;;;;;;;;;;5053956;28;20641;-69
2021/05/26 15:58:22;;;;;;;92.18;88.13;;;;;;;;;;5053729;28;20219;-69
2021/05/26 16:00:49;;;;;;;97.47;93.05;;;;;;;;;;5053942;28;20251;-69
2021/05/26 16:03:16;;;;;;;107.68;102.82;;;;;;;;;;5053886;28;20665;-69
2021/05/26 16:05:42;;;;;;;169.68;161.68;;;;;;;;;;5053782;28;20623;-69
2021/05/26 16:08:08;;;;;;;142.95;136.27;;;;;;;;;;5052508;28;20192;-69
2021/05/26 16:10:34;;;;;;;121.35;115.82;;;;;;;;;;5053746;28;20197;-70
2021/05/26 16:13:00;;;;;;;906.05;841.83;;;;;;;;;;5053783;28;20173;-70
2021/05/26 16:15:26;;;;;;;1049.30;965.47;;;;;;;;;;5053611;28;20623;-70
2021/05/26 16:17:53;;;;;;;812.78;755.92;;;;;;;;;;5052576;28;20193;-69
2021/05/26 16:27:13;;;;;;;62.42;59.55;;;;;;;;;;5071079;28;20664;-69
2021/05/26 16:29:40;;;;;;;51.22;49.13;;;;;;;;;;5071208;28;20169;-69
2021/05/26 16:32:07;;;;;;;58.70;56.22;;;;;;;;;;5070638;28;20571;-69
2021/05/26 16:34:33;;;;;;;58.97;56.47;;;;;;;;;;5069519;28;20165;-70
2021/05/26 16:36:59;;;;;;;64.85;62.05;;;;;;;;;;5070804;28;20169;-70
2021/05/26 16:39:25;;;;;;;69.22;66.25;;;;;;;;;;5070932;28;20211;-70
2021/05/26 16:41:52;;;;;;;78.85;75.45;;;;;;;;;;5070702;28;20176;-70
2021/05/26 16:44:18;;;;;;;74.22;71.00;;;;;;;;;;5070591;28;20251;-70
2021/05/26 16:46:44;;;;;;;75.38;72.13;;;;;;;;;;5070503;28;20223;-70
2021/05/26 16:49:10;;;;;;;81.28;77.75;;;;;;;;;;5070538;28;20532;-70
2021/05/26 16:51:38;;;;;;;84.18;80.47;;;;;;;;;;5070516;28;20179;-70
2021/05/26 16:54:04;;;;;;;84.88;81.18;;;;;;;;;;5070433;28;20660;-70
2021/05/26 16:56:31;;;;;;;83.00;79.40;;;;;;;;;;5069054;28;20176;-71
2021/05/26 16:58:57;;;;;;;88.13;84.28;;;;;;;;;;5069013;28;20172;-71
2021/05/26 17:01:24;;;;;;;97.50;93.20;;;;;;;;;;5070254;28;20169;-71
2021/05/26 17:03:50;;;;;;;95.05;90.47;;;;;;;;;;5070309;28;20172;-71
2021/05/26 17:06:16;;;;;;;105.72;101.00;;;;;;;;;;5069897;28;20741;-70
2021/05/26 17:08:42;;;;;;;106.25;101.55;;;;;;;;;;5068943;28;20529;-70
2021/05/26 17:11:09;;;;;;;107.40;102.65;;;;;;;;;;5070089;28;20169;-70
2021/05/26 17:13:35;;;;;;;107.57;102.82;;;;;;;;;;5069905;28;20248;-70
2021/05/26 17:16:01;;;;;;;108.03;103.22;;;;;;;;;;5069965;28;20184;-70
2021/05/26 17:18:27;;;;;;;101.97;97.50;;;;;;;;;;5069872;28;20169;-71
2021/05/26 17:20:53;;;;;;;101.30;96.80;;;;;;;;;;5069794;28;20219;-70
2021/05/26 17:23:19;;;;;;;98.35;93.97;;;;;;;;;;5069657;28;20175;-70
2021/05/26 17:25:45;;;;;;;91.15;87.18;;;;;;;;;;5069363;28;20223;-70
2021/05/26 17:28:11;;;;;;;88.90;85.05;;;;;;;;;;5069567;28;20810;-70
2021/05/26 17:30:49;;;;;;;83.55;79.90;;;;;;;;;;5069783;28;20192;-70
2021/05/26 17:33:15;;;;;;;67.10;63.97;;;;;;;;;;5069638;28;20172;-70
2021/05/26 17:35:41;;;;;;;72.15;69.03;;;;;;;;;;5069434;28;20180;-69
2021/05/26 17:38:08;;;;;;;76.03;72.70;;;;;;;;;;5058774;28;20169;-69
2021/05/26 17:40:35;;;;;;;62.10;59.35;;;;;;;;;;5055980;28;20228;-69
2021/05/26 17:43:03;;;;;;;71.40;68.22;;;;;;;;;;5054984;28;20183;-69
2021/05/26 17:45:29;;;;;;;64.55;61.75;;;;;;;;;;5054756;28;20204;-70
2021/05/26 17:47:55;;;;;;;60.72;58.15;;;;;;;;;;5056181;28;20220;-70
2021/05/26 17:50:22;;;;;;;68.05;65.13;;;;;;;;;;5055938;28;20169;-70
2021/05/26 17:52:49;;;;;;;70.95;67.90;;;;;;;;;;5054743;28;20173;-70
2021/05/26 17:55:16;;;;;;;70.15;67.15;;;;;;;;;;5055811;28;20222;-70
2021/05/26 17:57:42;;;;;;;68.28;65.25;;;;;;;;;;5055785;28;20518;-70
2021/05/26 18:00:09;;;;;;;67.00;64.15;;;;;;;;;;5055856;28;20511;-70
2021/05/26 18:02:35;;;;;;;68.90;65.55;;;;;;;;;;5055820;28;20169;-70
2021/05/26 18:05:02;;;;;;;67.45;64.45;;;;;;;;;;5055445;28;20180;-69
2021/05/26 18:07:28;;;;;;;59.70;57.20;;;;;;;;;;5054318;28;20196;-69
2021/05/26 18:09:55;;;;;;;60.75;58.22;;;;;;;;;;5054542;28;20189;-70
2021/05/26 18:12:21;;;;;;;66.70;63.78;;;;;;;;;;5055336;28;20200;-69
2021/05/26 18:14:48;;;;;;;62.30;59.53;;;;;;;;;;5055519;28;20165;-69
2021/05/26 18:17:14;;;;;;;61.70;58.30;;;;;;;;;;5055434;28;20253;-69
2021/05/26 18:19:43;;;;;;;61.55;58.95;;;;;;;;;;5055560;28;20256;-69
2021/05/26 18:22:10;;;;;;;61.45;58.85;;;;;;;;;;5055448;28;20169;-69
2021/05/26 18:24:36;;;;;;;63.17;60.42;;;;;;;;;;5055253;28;20185;-69
2021/05/26 18:27:05;;;;;;;67.97;65.05;;;;;;;;;;5053715;28;20278;-69
2021/05/26 18:29:31;;;;;;;68.10;64.97;;;;;;;;;;5054143;28;20177;-69
2021/05/26 18:31:57;;;;;;;60.20;57.60;;;;;;;;;;5055103;28;20248;-69
2021/05/26 18:34:22;;;;;;;54.72;52.42;;;;;;;;;;5055164;28;20256;-69
2021/05/26 18:36:48;;;;;;;55.05;52.78;;;;;;;;;;5055199;28;20172;-69
2021/05/26 18:39:14;;;;;;;56.50;54.13;;;;;;;;;;5055234;28;20639;-69
2021/05/26 18:41:40;;;;;;;56.83;54.42;;;;;;;;;;5055107;28;20193;-69
2021/05/26 18:44:07;;;;;;;51.03;48.83;;;;;;;;;;5054976;28;20177;-70
